sensor_id;sensor_type;location;lat;lon;timestamp;P1;durP1;ratioP1;P2;durP2;ratioP2
17586;SDS011;8912;52.336;17.172;2022-09-09T00:01:20;16.17;;;14.23;;
17586;SDS011;8912;52.336;17.172;2022-09-09T00:04:00;15.93;;;13.52;;
17586;SDS011;8912;52.336;17.172;2022-09-09T00:06:33;15.95;;;13.38;;
17586;SDS011;8912;52.336;17.172;2022-09-09T00:09:11;18.90;;;13.32;;
17586;SDS011;8912;52.336;17.172;2022-09-09T00:11:43;15.27;;;13.52;;
17586;SDS011;8912;52.336;17.172;2022-09-09T00:14:20;15.38;;;13.77;;
17586;SDS011;8912;52.336;17.172;2022-09-09T00:16:56;16.17;;;13.20;;
17586;SDS011;8912;52.336;17.172;2022-09-09T00:19:33;16.63;;;13.43;;
17586;SDS011;8912;52.336;17.172;2022-09-09T00:22:14;16.25;;;13.50;;
17586;SDS011;8912;52.336;17.172;2022-09-09T00:24:45;15.88;;;13.65;;
17586;SDS011;8912;52.336;17.172;2022-09-09T00:27:16;16.55;;;13.32;;
17586;SDS011;8912;52.336;17.172;2022-09-09T00:29:54;15.52;;;13.50;;
17586;SDS011;8912;52.336;17.172;2022-09-09T00:32:27;16.60;;;13.55;;
17586;SDS011;8912;52.336;17.172;2022-09-09T00:34:59;15.60;;;14.00;;
17586;SDS011;8912;52.336;17.172;2022-09-09T00:37:32;20.30;;;14.38;;
17586;SDS011;8912;52.336;17.172;2022-09-09T00:40:04;20.20;;;14.98;;
17586;SDS011;8912;52.336;17.172;2022-09-09T00:42:44;19.88;;;15.23;;
17586;SDS011;8912;52.336;17.172;2022-09-09T00:45:19;20.38;;;15.75;;
17586;SDS011;8912;52.336;17.172;2022-09-09T00:48:03;20.50;;;15.20;;
17586;SDS011;8912;52.336;17.172;2022-09-09T00:50:39;19.55;;;15.57;;
17586;SDS011;8912;52.336;17.172;2022-09-09T00:53:19;20.77;;;15.40;;
17586;SDS011;8912;52.336;17.172;2022-09-09T00:55:57;22.10;;;16.13;;
17586;SDS011;8912;52.336;17.172;2022-09-09T00:58:35;23.58;;;16.73;;
17586;SDS011;8912;52.336;17.172;2022-09-09T01:01:07;21.58;;;16.48;;
17586;SDS011;8912;52.336;17.172;2022-09-09T01:03:41;17.95;;;15.70;;
17586;SDS011;8912;52.336;17.172;2022-09-09T01:06:15;19.98;;;16.35;;
17586;SDS011;8912;52.336;17.172;2022-09-09T01:08:51;20.33;;;17.75;;
17586;SDS011;8912;52.336;17.172;2022-09-09T01:11:32;20.13;;;16.77;;
17586;SDS011;8912;52.336;17.172;2022-09-09T01:14:10;21.00;;;16.75;;
17586;SDS011;8912;52.336;17.172;2022-09-09T01:16:49;21.60;;;17.52;;
17586;SDS011;8912;52.336;17.172;2022-09-09T01:19:24;21.50;;;16.60;;
17586;SDS011;8912;52.336;17.172;2022-09-09T01:22:03;20.40;;;16.92;;
17586;SDS011;8912;52.336;17.172;2022-09-09T01:24:40;23.40;;;17.02;;
17586;SDS011;8912;52.336;17.172;2022-09-09T01:28:03;19.98;;;16.02;;
17586;SDS011;8912;52.336;17.172;2022-09-09T01:30:38;19.98;;;16.88;;
17586;SDS011;8912;52.336;17.172;2022-09-09T01:33:12;20.42;;;16.20;;
17586;SDS011;8912;52.336;17.172;2022-09-09T01:35:44;19.05;;;16.35;;
17586;SDS011;8912;52.336;17.172;2022-09-09T01:38:18;18.63;;;16.08;;
17586;SDS011;8912;52.336;17.172;2022-09-09T01:40:49;19.40;;;15.40;;
17586;SDS011;8912;52.336;17.172;2022-09-09T01:43:26;20.02;;;15.48;;
17586;SDS011;8912;52.336;17.172;2022-09-09T01:45:56;22.08;;;16.48;;
17586;SDS011;8912;52.336;17.172;2022-09-09T01:48:29;21.05;;;16.23;;
17586;SDS011;8912;52.336;17.172;2022-09-09T01:51:02;23.92;;;16.05;;
17586;SDS011;8912;52.336;17.172;2022-09-09T01:53:31;21.00;;;16.95;;
17586;SDS011;8912;52.336;17.172;2022-09-09T01:56:03;22.98;;;17.42;;
17586;SDS011;8912;52.336;17.172;2022-09-09T01:58:44;19.90;;;16.30;;
17586;SDS011;8912;52.336;17.172;2022-09-09T02:01:27;24.20;;;17.65;;
17586;SDS011;8912;52.336;17.172;2022-09-09T02:04:09;19.42;;;15.98;;
17586;SDS011;8912;52.336;17.172;2022-09-09T02:06:44;19.65;;;16.10;;
17586;SDS011;8912;52.336;17.172;2022-09-09T02:09:25;19.50;;;15.10;;
17586;SDS011;8912;52.336;17.172;2022-09-09T02:11:59;20.40;;;16.23;;
17586;SDS011;8912;52.336;17.172;2022-09-09T02:14:42;22.45;;;17.33;;
17586;SDS011;8912;52.336;17.172;2022-09-09T02:17:21;20.95;;;16.48;;
17586;SDS011;8912;52.336;17.172;2022-09-09T02:20:02;20.73;;;16.50;;
17586;SDS011;8912;52.336;17.172;2022-09-09T02:22:45;20.42;;;16.02;;
17586;SDS011;8912;52.336;17.172;2022-09-09T02:25:19;20.40;;;16.58;;
17586;SDS011;8912;52.336;17.172;2022-09-09T02:27:52;18.58;;;16.10;;
17586;SDS011;8912;52.336;17.172;2022-09-09T02:30:23;21.88;;;15.90;;
17586;SDS011;8912;52.336;17.172;2022-09-09T02:32:56;23.45;;;17.05;;
17586;SDS011;8912;52.336;17.172;2022-09-09T02:35:39;23.75;;;19.40;;
17586;SDS011;8912;52.336;17.172;2022-09-09T02:38:10;27.35;;;20.52;;
17586;SDS011;8912;52.336;17.172;2022-09-09T02:40:50;27.73;;;22.80;;
17586;SDS011;8912;52.336;17.172;2022-09-09T02:43:19;28.67;;;21.85;;
17586;SDS011;8912;52.336;17.172;2022-09-09T02:45:50;28.60;;;21.83;;
17586;SDS011;8912;52.336;17.172;2022-09-09T02:48:30;23.02;;;18.10;;
17586;SDS011;8912;52.336;17.172;2022-09-09T02:51:06;22.38;;;18.00;;
17586;SDS011;8912;52.336;17.172;2022-09-09T02:53:39;21.60;;;16.40;;
17586;SDS011;8912;52.336;17.172;2022-09-09T02:56:14;18.17;;;16.17;;
17586;SDS011;8912;52.336;17.172;2022-09-09T02:58:47;20.52;;;16.65;;
17586;SDS011;8912;52.336;17.172;2022-09-09T03:01:20;22.20;;;16.60;;
17586;SDS011;8912;52.336;17.172;2022-09-09T03:03:49;22.90;;;15.13;;
17586;SDS011;8912;52.336;17.172;2022-09-09T03:06:18;18.83;;;16.60;;
17586;SDS011;8912;52.336;17.172;2022-09-09T03:08:53;19.85;;;14.68;;
17586;SDS011;8912;52.336;17.172;2022-09-09T03:11:25;20.33;;;15.73;;
17586;SDS011;8912;52.336;17.172;2022-09-09T03:13:54;19.33;;;15.13;;
17586;SDS011;8912;52.336;17.172;2022-09-09T03:16:26;18.17;;;15.27;;
17586;SDS011;8912;52.336;17.172;2022-09-09T03:18:55;17.95;;;14.68;;
17586;SDS011;8912;52.336;17.172;2022-09-09T03:21:24;21.27;;;15.80;;
17586;SDS011;8912;52.336;17.172;2022-09-09T03:23:53;21.05;;;16.52;;
17586;SDS011;8912;52.336;17.172;2022-09-09T03:26:24;19.92;;;16.48;;
17586;SDS011;8912;52.336;17.172;2022-09-09T03:28:52;25.50;;;17.00;;
17586;SDS011;8912;52.336;17.172;2022-09-09T03:31:23;22.15;;;16.58;;
17586;SDS011;8912;52.336;17.172;2022-09-09T03:33:53;21.55;;;17.08;;
17586;SDS011;8912;52.336;17.172;2022-09-09T03:36:22;21.75;;;17.25;;
17586;SDS011;8912;52.336;17.172;2022-09-09T03:38:53;22.05;;;17.13;;
17586;SDS011;8912;52.336;17.172;2022-09-09T03:41:24;24.80;;;17.95;;
17586;SDS011;8912;52.336;17.172;2022-09-09T03:43:53;21.35;;;17.27;;
17586;SDS011;8912;52.336;17.172;2022-09-09T03:46:24;24.48;;;18.30;;
17586;SDS011;8912;52.336;17.172;2022-09-09T03:48:56;25.30;;;18.52;;
17586;SDS011;8912;52.336;17.172;2022-09-09T03:51:25;22.50;;;17.30;;
17586;SDS011;8912;52.336;17.172;2022-09-09T03:53:54;24.40;;;18.15;;
17586;SDS011;8912;52.336;17.172;2022-09-09T03:56:23;27.65;;;18.80;;
17586;SDS011;8912;52.336;17.172;2022-09-09T03:58:52;23.90;;;17.90;;
17586;SDS011;8912;52.336;17.172;2022-09-09T04:01:21;23.10;;;17.20;;
17586;SDS011;8912;52.336;17.172;2022-09-09T04:03:50;23.63;;;17.02;;
17586;SDS011;8912;52.336;17.172;2022-09-09T04:06:20;21.77;;;17.48;;
17586;SDS011;8912;52.336;17.172;2022-09-09T04:08:49;23.05;;;17.40;;
17586;SDS011;8912;52.336;17.172;2022-09-09T04:11:19;22.33;;;16.95;;
17586;SDS011;8912;52.336;17.172;2022-09-09T04:13:51;20.38;;;17.15;;
17586;SDS011;8912;52.336;17.172;2022-09-09T04:16:20;22.70;;;18.25;;
17586;SDS011;8912;52.336;17.172;2022-09-09T04:18:49;22.42;;;17.15;;
17586;SDS011;8912;52.336;17.172;2022-09-09T04:21:17;24.60;;;17.70;;
17586;SDS011;8912;52.336;17.172;2022-09-09T04:23:47;20.33;;;16.67;;
17586;SDS011;8912;52.336;17.172;2022-09-09T04:26:17;19.98;;;17.17;;
17586;SDS011;8912;52.336;17.172;2022-09-09T04:28:46;21.13;;;16.40;;
17586;SDS011;8912;52.336;17.172;2022-09-09T04:31:18;17.58;;;15.27;;
17586;SDS011;8912;52.336;17.172;2022-09-09T04:33:53;19.38;;;16.33;;
17586;SDS011;8912;52.336;17.172;2022-09-09T04:36:22;25.30;;;17.38;;
17586;SDS011;8912;52.336;17.172;2022-09-09T04:38:56;22.92;;;17.02;;
17586;SDS011;8912;52.336;17.172;2022-09-09T04:41:24;20.20;;;16.42;;
17586;SDS011;8912;52.336;17.172;2022-09-09T04:43:54;19.75;;;15.98;;
17586;SDS011;8912;52.336;17.172;2022-09-09T04:46:22;22.50;;;15.25;;
17586;SDS011;8912;52.336;17.172;2022-09-09T04:48:52;19.13;;;15.82;;
17586;SDS011;8912;52.336;17.172;2022-09-09T04:51:25;18.80;;;15.35;;
17586;SDS011;8912;52.336;17.172;2022-09-09T04:53:56;19.60;;;15.23;;
17586;SDS011;8912;52.336;17.172;2022-09-09T04:56:25;19.40;;;16.10;;
17586;SDS011;8912;52.336;17.172;2022-09-09T04:58:57;21.73;;;17.92;;
17586;SDS011;8912;52.336;17.172;2022-09-09T05:01:35;22.20;;;18.10;;
17586;SDS011;8912;52.336;17.172;2022-09-09T05:04:05;24.02;;;18.45;;
17586;SDS011;8912;52.336;17.172;2022-09-09T05:06:34;28.40;;;18.17;;
17586;SDS011;8912;52.336;17.172;2022-09-09T05:09:05;26.75;;;19.42;;
17586;SDS011;8912;52.336;17.172;2022-09-09T05:11:34;32.65;;;20.08;;
17586;SDS011;8912;52.336;17.172;2022-09-09T05:14:26;31.70;;;20.48;;
17586;SDS011;8912;52.336;17.172;2022-09-09T05:16:54;25.60;;;19.00;;
17586;SDS011;8912;52.336;17.172;2022-09-09T05:19:24;25.55;;;18.45;;
17586;SDS011;8912;52.336;17.172;2022-09-09T05:21:53;29.05;;;19.95;;
17586;SDS011;8912;52.336;17.172;2022-09-09T05:24:35;30.60;;;19.25;;
17586;SDS011;8912;52.336;17.172;2022-09-09T05:27:04;27.25;;;19.85;;
17586;SDS011;8912;52.336;17.172;2022-09-09T05:29:33;25.60;;;19.52;;
17586;SDS011;8912;52.336;17.172;2022-09-09T05:32:03;30.20;;;20.08;;
17586;SDS011;8912;52.336;17.172;2022-09-09T05:34:34;33.30;;;20.95;;
17586;SDS011;8912;52.336;17.172;2022-09-09T05:37:04;29.05;;;18.80;;
17586;SDS011;8912;52.336;17.172;2022-09-09T05:39:36;31.42;;;21.33;;
17586;SDS011;8912;52.336;17.172;2022-09-09T05:42:05;35.85;;;22.33;;
17586;SDS011;8912;52.336;17.172;2022-09-09T05:44:34;29.17;;;20.27;;
17586;SDS011;8912;52.336;17.172;2022-09-09T05:47:04;40.58;;;22.27;;
17586;SDS011;8912;52.336;17.172;2022-09-09T05:49:35;27.95;;;21.73;;
17586;SDS011;8912;52.336;17.172;2022-09-09T05:52:03;29.63;;;20.33;;
17586;SDS011;8912;52.336;17.172;2022-09-09T05:54:34;28.15;;;20.67;;
17586;SDS011;8912;52.336;17.172;2022-09-09T05:57:04;24.75;;;20.33;;
17586;SDS011;8912;52.336;17.172;2022-09-09T05:59:33;26.52;;;20.95;;
17586;SDS011;8912;52.336;17.172;2022-09-09T06:02:02;34.85;;;22.10;;
17586;SDS011;8912;52.336;17.172;2022-09-09T06:04:34;35.42;;;21.33;;
17586;SDS011;8912;52.336;17.172;2022-09-09T06:07:04;31.10;;;21.63;;
17586;SDS011;8912;52.336;17.172;2022-09-09T06:09:32;29.08;;;20.80;;
17586;SDS011;8912;52.336;17.172;2022-09-09T06:12:03;30.02;;;21.88;;
17586;SDS011;8912;52.336;17.172;2022-09-09T06:14:34;26.67;;;20.92;;
17586;SDS011;8912;52.336;17.172;2022-09-09T06:17:03;26.38;;;20.52;;
17586;SDS011;8912;52.336;17.172;2022-09-09T06:19:32;26.02;;;20.33;;
17586;SDS011;8912;52.336;17.172;2022-09-09T06:22:01;27.40;;;20.92;;
17586;SDS011;8912;52.336;17.172;2022-09-09T06:24:33;25.92;;;21.13;;
17586;SDS011;8912;52.336;17.172;2022-09-09T06:27:04;24.08;;;21.25;;
17586;SDS011;8912;52.336;17.172;2022-09-09T06:29:35;27.33;;;20.05;;
17586;SDS011;8912;52.336;17.172;2022-09-09T06:32:04;23.17;;;18.92;;
17586;SDS011;8912;52.336;17.172;2022-09-09T06:34:35;25.48;;;20.63;;
17586;SDS011;8912;52.336;17.172;2022-09-09T06:37:03;23.05;;;20.33;;
17586;SDS011;8912;52.336;17.172;2022-09-09T06:39:41;21.33;;;19.08;;
17586;SDS011;8912;52.336;17.172;2022-09-09T06:42:11;24.98;;;18.98;;
17586;SDS011;8912;52.336;17.172;2022-09-09T06:44:50;20.65;;;18.50;;
17586;SDS011;8912;52.336;17.172;2022-09-09T06:47:42;25.25;;;19.25;;
17586;SDS011;8912;52.336;17.172;2022-09-09T06:50:11;19.55;;;17.55;;
17586;SDS011;8912;52.336;17.172;2022-09-09T06:52:39;20.15;;;17.83;;
17586;SDS011;8912;52.336;17.172;2022-09-09T06:55:09;18.67;;;16.77;;
17586;SDS011;8912;52.336;17.172;2022-09-09T06:57:39;17.20;;;15.40;;
17586;SDS011;8912;52.336;17.172;2022-09-09T07:00:13;15.27;;;13.77;;
17586;SDS011;8912;52.336;17.172;2022-09-09T07:02:42;16.30;;;14.35;;
17586;SDS011;8912;52.336;17.172;2022-09-09T07:05:12;17.75;;;13.63;;
17586;SDS011;8912;52.336;17.172;2022-09-09T07:07:43;15.05;;;13.65;;
17586;SDS011;8912;52.336;17.172;2022-09-09T07:10:14;14.65;;;13.02;;
17586;SDS011;8912;52.336;17.172;2022-09-09T07:12:45;13.43;;;12.13;;
17586;SDS011;8912;52.336;17.172;2022-09-09T07:15:20;13.88;;;12.57;;
17586;SDS011;8912;52.336;17.172;2022-09-09T07:17:49;13.93;;;12.57;;
17586;SDS011;8912;52.336;17.172;2022-09-09T07:20:20;14.07;;;12.77;;
17586;SDS011;8912;52.336;17.172;2022-09-09T07:22:49;12.43;;;11.13;;
17586;SDS011;8912;52.336;17.172;2022-09-09T07:25:22;13.02;;;11.82;;
17586;SDS011;8912;52.336;17.172;2022-09-09T07:27:52;13.35;;;12.20;;
17586;SDS011;8912;52.336;17.172;2022-09-09T07:30:21;11.80;;;10.68;;
17586;SDS011;8912;52.336;17.172;2022-09-09T07:32:54;13.82;;;11.82;;
17586;SDS011;8912;52.336;17.172;2022-09-09T07:35:24;13.00;;;11.82;;
17586;SDS011;8912;52.336;17.172;2022-09-09T07:37:53;12.93;;;11.85;;
17586;SDS011;8912;52.336;17.172;2022-09-09T07:40:23;11.23;;;10.32;;
17586;SDS011;8912;52.336;17.172;2022-09-09T07:42:53;11.63;;;10.73;;
17586;SDS011;8912;52.336;17.172;2022-09-09T07:45:22;12.80;;;11.60;;
17586;SDS011;8912;52.336;17.172;2022-09-09T07:47:51;13.20;;;11.93;;
17586;SDS011;8912;52.336;17.172;2022-09-09T07:50:20;11.90;;;10.90;;
17586;SDS011;8912;52.336;17.172;2022-09-09T07:52:50;11.60;;;10.68;;
17586;SDS011;8912;52.336;17.172;2022-09-09T07:55:20;13.18;;;11.93;;
17586;SDS011;8912;52.336;17.172;2022-09-09T07:57:55;11.27;;;10.27;;
17586;SDS011;8912;52.336;17.172;2022-09-09T08:00:24;12.65;;;11.15;;
17586;SDS011;8912;52.336;17.172;2022-09-09T08:02:57;12.35;;;11.35;;
17586;SDS011;8912;52.336;17.172;2022-09-09T08:05:28;12.75;;;11.65;;
17586;SDS011;8912;52.336;17.172;2022-09-09T08:07:57;12.40;;;11.40;;
17586;SDS011;8912;52.336;17.172;2022-09-09T08:10:26;12.43;;;11.43;;
17586;SDS011;8912;52.336;17.172;2022-09-09T08:12:56;13.32;;;11.43;;
17586;SDS011;8912;52.336;17.172;2022-09-09T08:15:44;12.27;;;11.18;;
17586;SDS011;8912;52.336;17.172;2022-09-09T08:18:13;12.45;;;10.90;;
17586;SDS011;8912;52.336;17.172;2022-09-09T08:20:43;11.25;;;10.35;;
17586;SDS011;8912;52.336;17.172;2022-09-09T08:23:12;12.30;;;11.10;;
17586;SDS011;8912;52.336;17.172;2022-09-09T08:25:40;11.77;;;9.90;;
17586;SDS011;8912;52.336;17.172;2022-09-09T08:28:10;10.20;;;9.27;;
17586;SDS011;8912;52.336;17.172;2022-09-09T08:30:39;10.50;;;9.40;;
17586;SDS011;8912;52.336;17.172;2022-09-09T08:33:08;9.80;;;8.90;;
17586;SDS011;8912;52.336;17.172;2022-09-09T08:35:37;7.95;;;7.30;;
17586;SDS011;8912;52.336;17.172;2022-09-09T08:38:06;7.25;;;6.72;;
17586;SDS011;8912;52.336;17.172;2022-09-09T08:40:38;7.50;;;6.80;;
17586;SDS011;8912;52.336;17.172;2022-09-09T08:43:12;8.23;;;7.55;;
17586;SDS011;8912;52.336;17.172;2022-09-09T08:45:46;9.80;;;7.90;;
17586;SDS011;8912;52.336;17.172;2022-09-09T08:48:22;7.22;;;6.68;;
17586;SDS011;8912;52.336;17.172;2022-09-09T08:51:04;7.68;;;6.97;;
17586;SDS011;8912;52.336;17.172;2022-09-09T08:53:37;7.82;;;7.22;;
17586;SDS011;8912;52.336;17.172;2022-09-09T08:56:11;6.80;;;6.25;;
17586;SDS011;8912;52.336;17.172;2022-09-09T08:58:49;7.18;;;6.57;;
17586;SDS011;8912;52.336;17.172;2022-09-09T09:01:40;7.60;;;6.90;;
17586;SDS011;8912;52.336;17.172;2022-09-09T09:04:31;8.68;;;7.32;;
17586;SDS011;8912;52.336;17.172;2022-09-09T09:07:09;6.97;;;6.47;;
17586;SDS011;8912;52.336;17.172;2022-09-09T09:09:50;6.65;;;6.00;;
17586;SDS011;8912;52.336;17.172;2022-09-09T09:12:27;6.25;;;5.75;;
17586;SDS011;8912;52.336;17.172;2022-09-09T09:14:59;6.40;;;5.80;;
17586;SDS011;8912;52.336;17.172;2022-09-09T09:17:28;7.57;;;6.90;;
17586;SDS011;8912;52.336;17.172;2022-09-09T09:20:00;7.32;;;6.72;;
17586;SDS011;8912;52.336;17.172;2022-09-09T09:22:33;5.13;;;4.72;;
17586;SDS011;8912;52.336;17.172;2022-09-09T09:25:10;4.97;;;4.68;;
17586;SDS011;8912;52.336;17.172;2022-09-09T09:27:46;5.55;;;4.93;;
17586;SDS011;8912;52.336;17.172;2022-09-09T09:30:25;5.57;;;5.07;;
17586;SDS011;8912;52.336;17.172;2022-09-09T09:33:05;5.68;;;5.07;;
17586;SDS011;8912;52.336;17.172;2022-09-09T09:35:42;4.72;;;4.43;;
17586;SDS011;8912;52.336;17.172;2022-09-09T09:38:16;5.18;;;4.68;;
17586;SDS011;8912;52.336;17.172;2022-09-09T09:41:07;6.10;;;4.70;;
17586;SDS011;8912;52.336;17.172;2022-09-09T09:43:36;4.78;;;4.43;;
17586;SDS011;8912;52.336;17.172;2022-09-09T09:46:19;4.32;;;4.00;;
17586;SDS011;8912;52.336;17.172;2022-09-09T09:48:58;4.10;;;3.85;;
17586;SDS011;8912;52.336;17.172;2022-09-09T09:51:29;4.50;;;3.90;;
17586;SDS011;8912;52.336;17.172;2022-09-09T09:54:13;3.85;;;3.55;;
17586;SDS011;8912;52.336;17.172;2022-09-09T09:56:51;5.72;;;3.92;;
17586;SDS011;8912;52.336;17.172;2022-09-09T09:59:21;5.47;;;4.00;;
17586;SDS011;8912;52.336;17.172;2022-09-09T10:02:11;4.40;;;4.00;;
17586;SDS011;8912;52.336;17.172;2022-09-09T10:04:43;3.92;;;3.63;;
17586;SDS011;8912;52.336;17.172;2022-09-09T10:07:17;4.63;;;3.40;;
17586;SDS011;8912;52.336;17.172;2022-09-09T10:09:48;4.05;;;3.60;;
17586;SDS011;8912;52.336;17.172;2022-09-09T10:12:24;3.40;;;3.10;;
17586;SDS011;8912;52.336;17.172;2022-09-09T10:15:02;4.70;;;3.70;;
17586;SDS011;8912;52.336;17.172;2022-09-09T10:17:45;4.07;;;3.72;;
17586;SDS011;8912;52.336;17.172;2022-09-09T10:20:27;4.45;;;3.38;;
17586;SDS011;8912;52.336;17.172;2022-09-09T10:23:05;2.85;;;2.65;;
17586;SDS011;8912;52.336;17.172;2022-09-09T10:25:48;3.92;;;3.63;;
17586;SDS011;8912;52.336;17.172;2022-09-09T10:28:31;4.15;;;3.17;;
17586;SDS011;8912;52.336;17.172;2022-09-09T10:31:13;3.05;;;2.75;;
17586;SDS011;8912;52.336;17.172;2022-09-09T10:33:51;3.80;;;3.10;;
17586;SDS011;8912;52.336;17.172;2022-09-09T10:36:33;3.75;;;2.20;;
17586;SDS011;8912;52.336;17.172;2022-09-09T10:39:10;4.30;;;2.40;;
17586;SDS011;8912;52.336;17.172;2022-09-09T10:41:54;2.92;;;2.35;;
17586;SDS011;8912;52.336;17.172;2022-09-09T10:44:47;4.47;;;2.78;;
17586;SDS011;8912;52.336;17.172;2022-09-09T10:47:30;3.15;;;2.35;;
17586;SDS011;8912;52.336;17.172;2022-09-09T10:53:35;6.25;;;2.42;;
17586;SDS011;8912;52.336;17.172;2022-09-09T10:56:10;2.88;;;2.50;;
17586;SDS011;8912;52.336;17.172;2022-09-09T10:58:42;2.55;;;2.35;;
17586;SDS011;8912;52.336;17.172;2022-09-09T11:01:17;2.42;;;2.20;;
17586;SDS011;8912;52.336;17.172;2022-09-09T11:03:50;8.07;;;3.25;;
17586;SDS011;8912;52.336;17.172;2022-09-09T11:06:25;3.13;;;2.83;;
17586;SDS011;8912;52.336;17.172;2022-09-09T11:09:00;3.22;;;2.88;;
17586;SDS011;8912;52.336;17.172;2022-09-09T11:11:32;3.10;;;2.80;;
17586;SDS011;8912;52.336;17.172;2022-09-09T11:14:09;2.33;;;2.00;;
17586;SDS011;8912;52.336;17.172;2022-09-09T11:16:45;2.95;;;2.38;;
17586;SDS011;8912;52.336;17.172;2022-09-09T11:19:19;3.08;;;2.00;;
17586;SDS011;8912;52.336;17.172;2022-09-09T11:21:55;1.98;;;1.88;;
17586;SDS011;8912;52.336;17.172;2022-09-09T11:24:25;4.47;;;2.30;;
17586;SDS011;8912;52.336;17.172;2022-09-09T11:27:00;2.70;;;2.47;;
17586;SDS011;8912;52.336;17.172;2022-09-09T11:29:38;2.22;;;1.92;;
17586;SDS011;8912;52.336;17.172;2022-09-09T11:35:19;3.10;;;1.77;;
17586;SDS011;8912;52.336;17.172;2022-09-09T11:38:12;2.45;;;1.60;;
17586;SDS011;8912;52.336;17.172;2022-09-09T11:40:46;1.50;;;1.20;;
17586;SDS011;8912;52.336;17.172;2022-09-09T11:43:22;1.85;;;1.60;;
17586;SDS011;8912;52.336;17.172;2022-09-09T11:45:54;2.45;;;1.50;;
17586;SDS011;8912;52.336;17.172;2022-09-09T11:48:29;2.95;;;1.42;;
17586;SDS011;8912;52.336;17.172;2022-09-09T11:51:03;2.67;;;1.45;;
17586;SDS011;8912;52.336;17.172;2022-09-09T11:53:51;2.95;;;1.13;;
17586;SDS011;8912;52.336;17.172;2022-09-09T11:56:25;3.53;;;1.38;;
17586;SDS011;8912;52.336;17.172;2022-09-09T11:58:58;1.92;;;1.50;;
17586;SDS011;8912;52.336;17.172;2022-09-09T12:01:39;4.10;;;1.10;;
17586;SDS011;8912;52.336;17.172;2022-09-09T12:06:58;3.38;;;1.15;;
17586;SDS011;8912;52.336;17.172;2022-09-09T12:09:37;1.02;;;0.95;;
17586;SDS011;8912;52.336;17.172;2022-09-09T12:12:26;2.00;;;1.40;;
17586;SDS011;8912;52.336;17.172;2022-09-09T12:15:00;3.67;;;1.40;;
17586;SDS011;8912;52.336;17.172;2022-09-09T12:17:48;2.20;;;0.90;;
17586;SDS011;8912;52.336;17.172;2022-09-09T12:20:19;2.92;;;1.40;;
17586;SDS011;8912;52.336;17.172;2022-09-09T12:22:56;1.85;;;1.25;;
17586;SDS011;8912;52.336;17.172;2022-09-09T12:25:45;3.05;;;1.10;;
17586;SDS011;8912;52.336;17.172;2022-09-09T12:28:20;3.28;;;1.23;;
17586;SDS011;8912;52.336;17.172;2022-09-09T12:30:55;2.97;;;1.10;;
17586;SDS011;8912;52.336;17.172;2022-09-09T12:33:33;1.60;;;1.00;;
17586;SDS011;8912;52.336;17.172;2022-09-09T12:36:03;1.77;;;0.90;;
17586;SDS011;8912;52.336;17.172;2022-09-09T12:38:40;4.93;;;1.50;;
17586;SDS011;8912;52.336;17.172;2022-09-09T12:41:19;3.50;;;0.90;;
17586;SDS011;8912;52.336;17.172;2022-09-09T12:43:48;2.05;;;1.23;;
17586;SDS011;8912;52.336;17.172;2022-09-09T12:46:20;3.17;;;1.00;;
17586;SDS011;8912;52.336;17.172;2022-09-09T12:49:03;1.98;;;0.90;;
17586;SDS011;8912;52.336;17.172;2022-09-09T12:51:33;2.15;;;0.95;;
17586;SDS011;8912;52.336;17.172;2022-09-09T12:54:02;2.88;;;1.35;;
17586;SDS011;8912;52.336;17.172;2022-09-09T12:56:32;1.15;;;0.73;;
17586;SDS011;8912;52.336;17.172;2022-09-09T12:59:02;3.20;;;0.80;;
17586;SDS011;8912;52.336;17.172;2022-09-09T13:01:31;1.77;;;0.88;;
17586;SDS011;8912;52.336;17.172;2022-09-09T13:04:01;2.63;;;1.00;;
17586;SDS011;8912;52.336;17.172;2022-09-09T13:06:31;1.85;;;0.90;;
17586;SDS011;8912;52.336;17.172;2022-09-09T13:09:01;2.35;;;1.30;;
17586;SDS011;8912;52.336;17.172;2022-09-09T13:11:31;2.83;;;0.80;;
17586;SDS011;8912;52.336;17.172;2022-09-09T13:14:12;3.15;;;0.80;;
17586;SDS011;8912;52.336;17.172;2022-09-09T13:16:53;2.05;;;1.05;;
17586;SDS011;8912;52.336;17.172;2022-09-09T13:19:23;1.63;;;1.00;;
17586;SDS011;8912;52.336;17.172;2022-09-09T13:21:54;1.10;;;0.90;;
17586;SDS011;8912;52.336;17.172;2022-09-09T13:24:25;2.30;;;1.20;;
17586;SDS011;8912;52.336;17.172;2022-09-09T13:26:58;1.70;;;0.90;;
17586;SDS011;8912;52.336;17.172;2022-09-09T13:29:29;1.45;;;0.93;;
17586;SDS011;8912;52.336;17.172;2022-09-09T13:32:03;2.38;;;1.10;;
17586;SDS011;8912;52.336;17.172;2022-09-09T13:34:33;1.63;;;1.10;;
17586;SDS011;8912;52.336;17.172;2022-09-09T13:37:03;1.40;;;1.08;;
17586;SDS011;8912;52.336;17.172;2022-09-09T13:39:34;1.98;;;0.98;;
17586;SDS011;8912;52.336;17.172;2022-09-09T13:42:19;3.35;;;1.10;;
17586;SDS011;8912;52.336;17.172;2022-09-09T13:44:52;2.05;;;1.15;;
17586;SDS011;8912;52.336;17.172;2022-09-09T13:47:26;3.35;;;1.20;;
17586;SDS011;8912;52.336;17.172;2022-09-09T13:49:58;0.98;;;0.90;;
17586;SDS011;8912;52.336;17.172;2022-09-09T13:52:26;4.35;;;1.15;;
17586;SDS011;8912;52.336;17.172;2022-09-09T13:54:57;4.18;;;1.77;;
17586;SDS011;8912;52.336;17.172;2022-09-09T13:57:27;3.78;;;1.80;;
17586;SDS011;8912;52.336;17.172;2022-09-09T13:59:56;1.77;;;0.93;;
17586;SDS011;8912;52.336;17.172;2022-09-09T14:02:31;3.88;;;1.00;;
17586;SDS011;8912;52.336;17.172;2022-09-09T14:05:00;3.13;;;1.50;;
17586;SDS011;8912;52.336;17.172;2022-09-09T14:07:29;2.65;;;1.02;;
17586;SDS011;8912;52.336;17.172;2022-09-09T14:09:58;4.43;;;1.10;;
17586;SDS011;8912;52.336;17.172;2022-09-09T14:12:28;3.03;;;1.10;;
17586;SDS011;8912;52.336;17.172;2022-09-09T14:14:57;7.65;;;1.17;;
17586;SDS011;8912;52.336;17.172;2022-09-09T14:17:26;2.15;;;1.08;;
17586;SDS011;8912;52.336;17.172;2022-09-09T14:19:57;3.80;;;1.10;;
17586;SDS011;8912;52.336;17.172;2022-09-09T14:22:26;1.10;;;0.82;;
17586;SDS011;8912;52.336;17.172;2022-09-09T14:24:55;1.77;;;0.80;;
17586;SDS011;8912;52.336;17.172;2022-09-09T14:27:24;2.92;;;0.98;;
17586;SDS011;8912;52.336;17.172;2022-09-09T14:29:55;2.85;;;0.88;;
17586;SDS011;8912;52.336;17.172;2022-09-09T14:32:24;2.40;;;1.02;;
17586;SDS011;8912;52.336;17.172;2022-09-09T14:34:53;3.25;;;2.03;;
17586;SDS011;8912;52.336;17.172;2022-09-09T14:37:21;1.52;;;0.98;;
17586;SDS011;8912;52.336;17.172;2022-09-09T14:39:50;4.50;;;1.10;;
17586;SDS011;8912;52.336;17.172;2022-09-09T14:42:20;2.45;;;1.23;;
17586;SDS011;8912;52.336;17.172;2022-09-09T14:44:49;2.40;;;1.02;;
17586;SDS011;8912;52.336;17.172;2022-09-09T14:47:19;1.45;;;1.00;;
17586;SDS011;8912;52.336;17.172;2022-09-09T14:49:47;1.42;;;0.98;;
17586;SDS011;8912;52.336;17.172;2022-09-09T14:52:17;2.28;;;0.90;;
17586;SDS011;8912;52.336;17.172;2022-09-09T14:54:45;2.38;;;0.98;;
17586;SDS011;8912;52.336;17.172;2022-09-09T14:57:14;1.73;;;1.10;;
17586;SDS011;8912;52.336;17.172;2022-09-09T14:59:42;2.83;;;1.00;;
17586;SDS011;8912;52.336;17.172;2022-09-09T15:02:11;2.78;;;1.10;;
17586;SDS011;8912;52.336;17.172;2022-09-09T15:04:42;2.72;;;0.93;;
17586;SDS011;8912;52.336;17.172;2022-09-09T15:07:10;2.25;;;0.82;;
17586;SDS011;8912;52.336;17.172;2022-09-09T15:09:39;2.70;;;1.10;;
17586;SDS011;8912;52.336;17.172;2022-09-09T15:12:08;2.22;;;1.15;;
17586;SDS011;8912;52.336;17.172;2022-09-09T15:14:36;4.32;;;1.00;;
17586;SDS011;8912;52.336;17.172;2022-09-09T15:17:05;3.05;;;1.02;;
17586;SDS011;8912;52.336;17.172;2022-09-09T15:19:33;1.27;;;0.90;;